Charlotte/Douglas

Airport
ICAO code: 
KCLT
Summary
ICAO Region: 
NAM
Territory: 
Location: 
Charlotte, North Carolina,
Coordinates: 
Aerial View: 
35° 12' 50.403" N, 80° 56' 35.16" W
Airport LOS: 
Parallel Runway Operation
Airport RE: 
Engineered Materials Arresting System
Airport WX: 
Cumulonimbus
Metar
Observation
KCLT 052352Z 11005KT 10SM OVC030 16/08 A3017 RMK AO2 SLP215 T01610078 10183 20139 53004
Station
Charlotte, Charlotte / Douglas International Airport
Date/Time
2021-12-05 23:52:00
Wind direction
110°
Wind speed
05 kts
Lowest cloud amount
overcast
Temperature
16.1°C
Dew point
7.8°C
Humidity
57%
Weather condition
n/a

Description

International airport serving Charlotte, North Carolina, USA.

Climatology

Humid “subtropical” climate (Köppen climate classification Cfa) - characterized by hot, humid summers and cool winters. Significant amounts of precipitation occur in all seasons in most areas. Winter rainfall (and sometimes snowfall) is associated with large storms that the westerlies steer from west to east. Most summer rainfall occurs during thunderstorms and occasional tropical storms (hurricanes).

Runways

Designator Length Width Surface Rops
5/23 2287 46 PEM Yes/Yes
18L/36R 2644 46 PEM Yes/Yes
18C/36C 3048 46 CONC-F Yes/Yes
18R/36L 3048 46 CON Yes/Yes

SKYbrary Partners:

Safety knowledge contributed by: